This is the latest recevied weather packets stored in our database for station/object K7ZQU-7. If no packets are shown the sender has not sent any weather packets the latest 1 day(s).
| Time | Temp. | Humidity | Pressure | Rain* | Wind** | Luminosity | Snow |
|---|---|---|---|---|---|---|---|
| 1778102078 | 18.33° C | 45% | 1020.3 hPa | 0 mm | 1.34 m/s, 249° | - | - |
| 1778101457 | 18.89° C | 42% | 1020.1 hPa | 0 mm | 2.68 m/s, 269° | - | - |
| 1778101158 | 18.89° C | 42% | 1020.1 hPa | 0 mm | 3.13 m/s, 300° | - | - |
| 1778100259 | 18.89° C | 44% | 1020.1 hPa | 0 mm | 2.68 m/s, 321° | - | - |
| 1778099661 | 18.33° C | 45% | 1019.9 hPa | 0 mm | 2.24 m/s, 285° | - | - |
| 1778097863 | 18.89° C | 45% | 1019.8 hPa | 0 mm | 1.34 m/s, 295° | - | - |
| 1778097564 | 18.89° C | 46% | 1019.8 hPa | 0 mm | 1.79 m/s, 288° | - | - |
| 1778097265 | 18.33° C | 45% | 1019.9 hPa | 0 mm | 2.24 m/s, 288° | - | - |
| 1778096070 | 18.89° C | 43% | 1019.8 hPa | 0 mm | 2.24 m/s, 314° | - | - |
| 1778095171 | 18.89° C | 44% | 1019.8 hPa | 0 mm | 1.34 m/s, 293° | - | - |
| 1778093973 | 18.33° C | 45% | 1020.1 hPa | 0 mm | 2.68 m/s, 315° | - | - |
| 1778093674 | 17.78° C | 49% | 1020.1 hPa | 0 mm | 0.89 m/s, 266° | - | - |
| 1778092476 | 17.78° C | 49% | 1020.1 hPa | 0 mm | 1.34 m/s, 321° | - | - |
| 1778092177 | 17.22° C | 50% | 1020.1 hPa | 0 mm | 1.34 m/s, 328° | - | - |
| 1778090680 | 16.11° C | 56% | 1020.1 hPa | 0 mm | 2.24 m/s, 238° | - | - |
| 1778088881 | 15° C | 58% | 1019.9 hPa | 0 mm | 1.79 m/s, 264° | - | - |
| 1778088582 | 15° C | 57% | 1019.9 hPa | 0 mm | 0.45 m/s, 314° | - | - |
| 1778087984 | 15° C | 53% | 1019.7 hPa | 0 mm | 1.34 m/s, 316° | - | - |
| 1778087685 | 15° C | 57% | 1019.7 hPa | 0 mm | 2.24 m/s, 312° | - | - |
| 1778086488 | 14.44° C | 63% | 1019.4 hPa | 0 mm | 0.89 m/s, 305° | - | - |
| 1778084989 | 12.78° C | 73% | 1018.9 hPa | 0 mm | 1.34 m/s, 285° | - | - |
| 1778084690 | 12.78° C | 74% | 1018.9 hPa | 0 mm | 0.45 m/s, 280° | - | - |
| 1778084089 | 12.78° C | 73% | 1018.9 hPa | 0 mm | 1.34 m/s, 323° | - | - |
| 1778081393 | 10.56° C | 83% | 1018.8 hPa | 0 mm | 1.79 m/s, 315° | - | - |
| 1778078398 | 8.33° C | 98% | 1018.6 hPa | 0 mm | 1.34 m/s, 315° | - | - |
* Rain latest hour (hover to see other rain measurements)
** Current wind speed in m/s (hover to see current wind gust speed)